sensor_id;sensor_type;location;lat;lon;timestamp;P1;durP1;ratioP1;P2;durP2;ratioP2
19113;SDS011;9689;51.052;13.772;2023-07-28T00:02:38;1.05;;;0.70;;
19113;SDS011;9689;51.052;13.772;2023-07-28T00:07:39;0.40;;;0.40;;
19113;SDS011;9689;51.052;13.772;2023-07-28T00:12:41;9.43;;;0.60;;
19113;SDS011;9689;51.052;13.772;2023-07-28T00:17:42;1.63;;;1.00;;
19113;SDS011;9689;51.052;13.772;2023-07-28T00:22:43;1.38;;;0.88;;
19113;SDS011;9689;51.052;13.772;2023-07-28T00:27:45;1.73;;;0.63;;
19113;SDS011;9689;51.052;13.772;2023-07-28T00:32:46;2.20;;;0.52;;
19113;SDS011;9689;51.052;13.772;2023-07-28T00:37:47;0.60;;;0.52;;
19113;SDS011;9689;51.052;13.772;2023-07-28T00:42:49;1.30;;;0.85;;
19113;SDS011;9689;51.052;13.772;2023-07-28T00:47:50;0.90;;;0.77;;
19113;SDS011;9689;51.052;13.772;2023-07-28T00:52:52;1.73;;;0.90;;
19113;SDS011;9689;51.052;13.772;2023-07-28T00:57:54;1.80;;;0.80;;
19113;SDS011;9689;51.052;13.772;2023-07-28T01:02:55;3.40;;;0.68;;
19113;SDS011;9689;51.052;13.772;2023-07-28T01:07:58;0.77;;;0.70;;
19113;SDS011;9689;51.052;13.772;2023-07-28T01:13:07;0.80;;;0.70;;
19113;SDS011;9689;51.052;13.772;2023-07-28T01:18:08;1.20;;;1.00;;
19113;SDS011;9689;51.052;13.772;2023-07-28T01:23:13;0.95;;;0.85;;
19113;SDS011;9689;51.052;13.772;2023-07-28T01:28:20;1.38;;;1.15;;
19113;SDS011;9689;51.052;13.772;2023-07-28T01:33:22;4.95;;;1.10;;
19113;SDS011;9689;51.052;13.772;2023-07-28T01:38:22;2.33;;;1.10;;
19113;SDS011;9689;51.052;13.772;2023-07-28T01:43:25;4.25;;;1.20;;
19113;SDS011;9689;51.052;13.772;2023-07-28T01:48:25;4.20;;;1.63;;
19113;SDS011;9689;51.052;13.772;2023-07-28T01:53:26;3.60;;;1.70;;
19113;SDS011;9689;51.052;13.772;2023-07-28T01:58:28;3.08;;;1.50;;
19113;SDS011;9689;51.052;13.772;2023-07-28T02:03:29;2.75;;;1.33;;
19113;SDS011;9689;51.052;13.772;2023-07-28T02:08:30;4.53;;;1.80;;
19113;SDS011;9689;51.052;13.772;2023-07-28T02:13:32;2.38;;;1.92;;
19113;SDS011;9689;51.052;13.772;2023-07-28T02:18:35;2.13;;;1.50;;
19113;SDS011;9689;51.052;13.772;2023-07-28T02:23:36;2.53;;;1.42;;
19113;SDS011;9689;51.052;13.772;2023-07-28T02:28:38;2.40;;;1.42;;
19113;SDS011;9689;51.052;13.772;2023-07-28T02:33:39;5.57;;;1.52;;
19113;SDS011;9689;51.052;13.772;2023-07-28T02:38:40;7.32;;;2.33;;
19113;SDS011;9689;51.052;13.772;2023-07-28T02:43:42;3.67;;;1.65;;
19113;SDS011;9689;51.052;13.772;2023-07-28T02:48:43;3.97;;;1.48;;
19113;SDS011;9689;51.052;13.772;2023-07-28T02:53:44;4.70;;;1.23;;
19113;SDS011;9689;51.052;13.772;2023-07-28T02:58:47;3.65;;;1.40;;
19113;SDS011;9689;51.052;13.772;2023-07-28T03:03:48;4.03;;;1.30;;
19113;SDS011;9689;51.052;13.772;2023-07-28T03:08:50;2.92;;;1.17;;
19113;SDS011;9689;51.052;13.772;2023-07-28T03:14:10;1.92;;;1.30;;
19113;SDS011;9689;51.052;13.772;2023-07-28T03:19:12;1.30;;;1.08;;
19113;SDS011;9689;51.052;13.772;2023-07-28T03:24:13;3.63;;;1.05;;
19113;SDS011;9689;51.052;13.772;2023-07-28T03:29:15;2.33;;;1.20;;
19113;SDS011;9689;51.052;13.772;2023-07-28T03:34:17;1.27;;;1.17;;
19113;SDS011;9689;51.052;13.772;2023-07-28T03:39:19;2.85;;;1.33;;
19113;SDS011;9689;51.052;13.772;2023-07-28T03:44:22;2.85;;;1.35;;
19113;SDS011;9689;51.052;13.772;2023-07-28T03:49:23;1.75;;;1.35;;
19113;SDS011;9689;51.052;13.772;2023-07-28T03:54:24;3.05;;;1.17;;
19113;SDS011;9689;51.052;13.772;2023-07-28T03:59:27;1.63;;;1.00;;
19113;SDS011;9689;51.052;13.772;2023-07-28T04:04:27;2.55;;;1.38;;
19113;SDS011;9689;51.052;13.772;2023-07-28T04:09:28;2.50;;;1.10;;
19113;SDS011;9689;51.052;13.772;2023-07-28T04:14:30;1.52;;;1.05;;
19113;SDS011;9689;51.052;13.772;2023-07-28T04:19:31;1.10;;;1.00;;
19113;SDS011;9689;51.052;13.772;2023-07-28T04:24:32;1.63;;;1.20;;
19113;SDS011;9689;51.052;13.772;2023-07-28T04:29:35;3.00;;;1.27;;
19113;SDS011;9689;51.052;13.772;2023-07-28T04:34:39;1.45;;;1.00;;
19113;SDS011;9689;51.052;13.772;2023-07-28T04:39:47;1.15;;;1.00;;
19113;SDS011;9689;51.052;13.772;2023-07-28T04:44:51;3.83;;;0.90;;
19113;SDS011;9689;51.052;13.772;2023-07-28T04:49:51;3.15;;;0.80;;
19113;SDS011;9689;51.052;13.772;2023-07-28T04:55:21;1.40;;;1.00;;
19113;SDS011;9689;51.052;13.772;2023-07-28T05:00:23;6.03;;;1.55;;
19113;SDS011;9689;51.052;13.772;2023-07-28T05:05:24;1.20;;;1.00;;
19113;SDS011;9689;51.052;13.772;2023-07-28T05:10:25;4.32;;;0.95;;
19113;SDS011;9689;51.052;13.772;2023-07-28T05:15:27;1.92;;;0.80;;
19113;SDS011;9689;51.052;13.772;2023-07-28T05:20:28;3.03;;;0.90;;
19113;SDS011;9689;51.052;13.772;2023-07-28T05:25:39;3.42;;;1.13;;
19113;SDS011;9689;51.052;13.772;2023-07-28T05:30:42;0.98;;;0.80;;
19113;SDS011;9689;51.052;13.772;2023-07-28T05:35:44;1.40;;;0.70;;
19113;SDS011;9689;51.052;13.772;2023-07-28T05:40:44;2.75;;;0.55;;
19113;SDS011;9689;51.052;13.772;2023-07-28T05:45:47;3.58;;;0.90;;
19113;SDS011;9689;51.052;13.772;2023-07-28T05:50:48;3.03;;;1.00;;
19113;SDS011;9689;51.052;13.772;2023-07-28T05:55:50;1.85;;;1.17;;
19113;SDS011;9689;51.052;13.772;2023-07-28T06:00:53;3.15;;;0.90;;
19113;SDS011;9689;51.052;13.772;2023-07-28T06:06:14;0.73;;;0.65;;
19113;SDS011;9689;51.052;13.772;2023-07-28T06:11:15;1.73;;;0.90;;
19113;SDS011;9689;51.052;13.772;2023-07-28T06:16:17;2.63;;;0.80;;
19113;SDS011;9689;51.052;13.772;2023-07-28T06:21:18;3.42;;;0.60;;
19113;SDS011;9689;51.052;13.772;2023-07-28T06:26:19;1.15;;;0.80;;
19113;SDS011;9689;51.052;13.772;2023-07-28T06:31:21;7.47;;;1.02;;
19113;SDS011;9689;51.052;13.772;2023-07-28T06:36:22;3.13;;;1.02;;
19113;SDS011;9689;51.052;13.772;2023-07-28T06:41:23;2.35;;;0.82;;
19113;SDS011;9689;51.052;13.772;2023-07-28T06:46:32;3.90;;;0.80;;
19113;SDS011;9689;51.052;13.772;2023-07-28T06:51:33;1.23;;;0.65;;
19113;SDS011;9689;51.052;13.772;2023-07-28T06:56:35;0.60;;;0.60;;
19113;SDS011;9689;51.052;13.772;2023-07-28T07:01:37;1.17;;;0.60;;
19113;SDS011;9689;51.052;13.772;2023-07-28T07:06:38;3.13;;;0.57;;
19113;SDS011;9689;51.052;13.772;2023-07-28T07:11:39;2.08;;;0.50;;
19113;SDS011;9689;51.052;13.772;2023-07-28T07:16:41;3.33;;;0.60;;
19113;SDS011;9689;51.052;13.772;2023-07-28T07:21:46;4.57;;;0.70;;
19113;SDS011;9689;51.052;13.772;2023-07-28T07:26:48;0.85;;;0.60;;
19113;SDS011;9689;51.052;13.772;2023-07-28T07:31:51;3.63;;;0.43;;
19113;SDS011;9689;51.052;13.772;2023-07-28T07:36:55;1.05;;;0.45;;
19113;SDS011;9689;51.052;13.772;2023-07-28T07:41:56;2.95;;;0.50;;
19113;SDS011;9689;51.052;13.772;2023-07-28T07:47:01;1.73;;;0.77;;
19113;SDS011;9689;51.052;13.772;2023-07-28T07:52:12;1.27;;;0.40;;
19113;SDS011;9689;51.052;13.772;2023-07-28T07:57:15;2.10;;;0.90;;
19113;SDS011;9689;51.052;13.772;2023-07-28T08:02:18;0.65;;;0.40;;
19113;SDS011;9689;51.052;13.772;2023-07-28T08:07:19;1.65;;;0.40;;
19113;SDS011;9689;51.052;13.772;2023-07-28T08:12:20;0.52;;;0.52;;
19113;SDS011;9689;51.052;13.772;2023-07-28T08:17:22;3.55;;;0.52;;
19113;SDS011;9689;51.052;13.772;2023-07-28T08:22:23;6.40;;;0.60;;
19113;SDS011;9689;51.052;13.772;2023-07-28T08:27:24;0.60;;;0.40;;
19113;SDS011;9689;51.052;13.772;2023-07-28T08:32:27;0.90;;;0.20;;
19113;SDS011;9689;51.052;13.772;2023-07-28T08:37:28;0.98;;;0.20;;
19113;SDS011;9689;51.052;13.772;2023-07-28T08:42:30;0.60;;;0.30;;
19113;SDS011;9689;51.052;13.772;2023-07-28T08:47:33;0.47;;;0.47;;
19113;SDS011;9689;51.052;13.772;2023-07-28T08:52:34;2.00;;;0.40;;
19113;SDS011;9689;51.052;13.772;2023-07-28T08:57:35;0.52;;;0.45;;
19113;SDS011;9689;51.052;13.772;2023-07-28T09:02:37;0.43;;;0.43;;
19113;SDS011;9689;51.052;13.772;2023-07-28T09:07:38;0.38;;;0.38;;
19113;SDS011;9689;51.052;13.772;2023-07-28T09:12:44;0.43;;;0.43;;
19113;SDS011;9689;51.052;13.772;2023-07-28T09:17:46;0.77;;;0.50;;
19113;SDS011;9689;51.052;13.772;2023-07-28T09:22:50;0.47;;;0.47;;
19113;SDS011;9689;51.052;13.772;2023-07-28T09:27:52;0.82;;;0.45;;
19113;SDS011;9689;51.052;13.772;2023-07-28T09:32:55;2.25;;;0.50;;
19113;SDS011;9689;51.052;13.772;2023-07-28T09:37:56;1.17;;;0.40;;
19113;SDS011;9689;51.052;13.772;2023-07-28T09:42:57;1.17;;;0.70;;
19113;SDS011;9689;51.052;13.772;2023-07-28T09:48:00;0.77;;;0.50;;
19113;SDS011;9689;51.052;13.772;2023-07-28T09:53:02;4.30;;;0.95;;
19113;SDS011;9689;51.052;13.772;2023-07-28T09:58:04;0.60;;;0.55;;
19113;SDS011;9689;51.052;13.772;2023-07-28T10:03:08;0.82;;;0.50;;
19113;SDS011;9689;51.052;13.772;2023-07-28T10:08:09;0.55;;;0.43;;
19113;SDS011;9689;51.052;13.772;2023-07-28T10:13:19;1.10;;;0.43;;
19113;SDS011;9689;51.052;13.772;2023-07-28T10:18:23;1.90;;;0.50;;
19113;SDS011;9689;51.052;13.772;2023-07-28T10:23:26;0.70;;;0.57;;
19113;SDS011;9689;51.052;13.772;2023-07-28T10:28:27;2.13;;;0.30;;
19113;SDS011;9689;51.052;13.772;2023-07-28T10:33:33;1.05;;;0.55;;
19113;SDS011;9689;51.052;13.772;2023-07-28T10:38:40;0.65;;;0.40;;
19113;SDS011;9689;51.052;13.772;2023-07-28T10:43:43;0.43;;;0.32;;
19113;SDS011;9689;51.052;13.772;2023-07-28T10:48:47;0.63;;;0.47;;
19113;SDS011;9689;51.052;13.772;2023-07-28T10:53:49;0.43;;;0.40;;
19113;SDS011;9689;51.052;13.772;2023-07-28T10:58:55;0.20;;;0.20;;
19113;SDS011;9689;51.052;13.772;2023-07-28T11:03:58;0.30;;;0.30;;
19113;SDS011;9689;51.052;13.772;2023-07-28T11:09:06;2.28;;;0.43;;
19113;SDS011;9689;51.052;13.772;2023-07-28T11:14:08;7.82;;;2.63;;
19113;SDS011;9689;51.052;13.772;2023-07-28T11:19:11;5.25;;;0.57;;
19113;SDS011;9689;51.052;13.772;2023-07-28T11:24:17;1.83;;;0.57;;
19113;SDS011;9689;51.052;13.772;2023-07-28T11:29:18;2.40;;;0.88;;
19113;SDS011;9689;51.052;13.772;2023-07-28T11:34:21;0.75;;;0.40;;
19113;SDS011;9689;51.052;13.772;2023-07-28T11:39:22;1.52;;;0.57;;
19113;SDS011;9689;51.052;13.772;2023-07-28T11:44:24;0.55;;;0.50;;
19113;SDS011;9689;51.052;13.772;2023-07-28T11:49:29;1.67;;;0.50;;
19113;SDS011;9689;51.052;13.772;2023-07-28T11:54:30;3.50;;;0.50;;
19113;SDS011;9689;51.052;13.772;2023-07-28T11:59:31;3.08;;;0.82;;
19113;SDS011;9689;51.052;13.772;2023-07-28T12:04:35;2.67;;;0.50;;
19113;SDS011;9689;51.052;13.772;2023-07-28T12:09:52;2.58;;;0.68;;
19113;SDS011;9689;51.052;13.772;2023-07-28T12:14:57;0.90;;;0.60;;
19113;SDS011;9689;51.052;13.772;2023-07-28T12:20:08;2.15;;;0.65;;
19113;SDS011;9689;51.052;13.772;2023-07-28T12:25:27;1.02;;;0.50;;
19113;SDS011;9689;51.052;13.772;2023-07-28T12:30:28;3.63;;;0.65;;
19113;SDS011;9689;51.052;13.772;2023-07-28T12:35:30;0.43;;;0.40;;
19113;SDS011;9689;51.052;13.772;2023-07-28T12:40:37;5.45;;;0.50;;
19113;SDS011;9689;51.052;13.772;2023-07-28T12:45:41;0.65;;;0.50;;
19113;SDS011;9689;51.052;13.772;2023-07-28T12:50:45;1.30;;;0.55;;
19113;SDS011;9689;51.052;13.772;2023-07-28T12:55:47;0.52;;;0.50;;
19113;SDS011;9689;51.052;13.772;2023-07-28T13:00:51;0.90;;;0.60;;
19113;SDS011;9689;51.052;13.772;2023-07-28T13:05:55;0.80;;;0.60;;
19113;SDS011;9689;51.052;13.772;2023-07-28T13:10:57;2.45;;;0.70;;
19113;SDS011;9689;51.052;13.772;2023-07-28T13:16:00;1.80;;;0.60;;
19113;SDS011;9689;51.052;13.772;2023-07-28T13:21:02;0.50;;;0.50;;
19113;SDS011;9689;51.052;13.772;2023-07-28T13:26:04;2.38;;;0.43;;
19113;SDS011;9689;51.052;13.772;2023-07-28T13:31:05;0.73;;;0.65;;
19113;SDS011;9689;51.052;13.772;2023-07-28T13:36:06;1.30;;;0.70;;
19113;SDS011;9689;51.052;13.772;2023-07-28T13:41:08;1.02;;;0.90;;
19113;SDS011;9689;51.052;13.772;2023-07-28T13:46:09;0.88;;;0.70;;
19113;SDS011;9689;51.052;13.772;2023-07-28T13:51:11;2.83;;;0.60;;
19113;SDS011;9689;51.052;13.772;2023-07-28T13:56:16;0.85;;;0.70;;
19113;SDS011;9689;51.052;13.772;2023-07-28T14:01:19;0.82;;;0.82;;
19113;SDS011;9689;51.052;13.772;2023-07-28T14:06:21;1.38;;;0.68;;
19113;SDS011;9689;51.052;13.772;2023-07-28T14:11:23;0.80;;;0.60;;
19113;SDS011;9689;51.052;13.772;2023-07-28T14:16:24;1.25;;;0.70;;
19113;SDS011;9689;51.052;13.772;2023-07-28T14:21:25;0.82;;;0.70;;
19113;SDS011;9689;51.052;13.772;2023-07-28T14:26:27;1.00;;;0.60;;
19113;SDS011;9689;51.052;13.772;2023-07-28T14:31:28;0.80;;;0.60;;
19113;SDS011;9689;51.052;13.772;2023-07-28T14:36:29;0.63;;;0.55;;
19113;SDS011;9689;51.052;13.772;2023-07-28T14:41:31;0.60;;;0.60;;
19113;SDS011;9689;51.052;13.772;2023-07-28T14:46:32;2.72;;;0.60;;
19113;SDS011;9689;51.052;13.772;2023-07-28T14:51:33;1.30;;;0.63;;
19113;SDS011;9689;51.052;13.772;2023-07-28T14:56:36;3.00;;;0.50;;
19113;SDS011;9689;51.052;13.772;2023-07-28T15:01:36;0.73;;;0.50;;
19113;SDS011;9689;51.052;13.772;2023-07-28T15:06:37;0.50;;;0.50;;
19113;SDS011;9689;51.052;13.772;2023-07-28T15:11:40;0.80;;;0.52;;
19113;SDS011;9689;51.052;13.772;2023-07-28T15:16:41;1.40;;;0.60;;
19113;SDS011;9689;51.052;13.772;2023-07-28T15:21:42;1.15;;;0.80;;
19113;SDS011;9689;51.052;13.772;2023-07-28T15:26:44;1.55;;;0.77;;
19113;SDS011;9689;51.052;13.772;2023-07-28T15:31:46;1.25;;;0.70;;
19113;SDS011;9689;51.052;13.772;2023-07-28T15:36:47;3.70;;;0.70;;
19113;SDS011;9689;51.052;13.772;2023-07-28T15:41:49;2.47;;;0.70;;
19113;SDS011;9689;51.052;13.772;2023-07-28T15:46:50;1.60;;;0.80;;
19113;SDS011;9689;51.052;13.772;2023-07-28T15:51:52;1.85;;;0.85;;
19113;SDS011;9689;51.052;13.772;2023-07-28T15:56:54;2.45;;;0.93;;
19113;SDS011;9689;51.052;13.772;2023-07-28T16:01:55;1.08;;;0.80;;
19113;SDS011;9689;51.052;13.772;2023-07-28T16:06:56;2.35;;;0.98;;
19113;SDS011;9689;51.052;13.772;2023-07-28T16:11:58;1.75;;;1.10;;
19113;SDS011;9689;51.052;13.772;2023-07-28T16:16:58;1.02;;;0.70;;
19113;SDS011;9689;51.052;13.772;2023-07-28T16:22:00;1.83;;;0.93;;
19113;SDS011;9689;51.052;13.772;2023-07-28T16:27:03;3.22;;;0.98;;
19113;SDS011;9689;51.052;13.772;2023-07-28T16:32:04;1.00;;;0.70;;
19113;SDS011;9689;51.052;13.772;2023-07-28T16:37:06;1.17;;;0.80;;
19113;SDS011;9689;51.052;13.772;2023-07-28T16:42:08;0.77;;;0.63;;
19113;SDS011;9689;51.052;13.772;2023-07-28T16:47:09;1.48;;;0.88;;
19113;SDS011;9689;51.052;13.772;2023-07-28T16:52:10;1.52;;;0.75;;
19113;SDS011;9689;51.052;13.772;2023-07-28T16:57:12;0.47;;;0.47;;
19113;SDS011;9689;51.052;13.772;2023-07-28T17:02:13;1.35;;;0.75;;
19113;SDS011;9689;51.052;13.772;2023-07-28T17:07:14;1.75;;;0.70;;
19113;SDS011;9689;51.052;13.772;2023-07-28T17:12:16;2.65;;;1.00;;
19113;SDS011;9689;51.052;13.772;2023-07-28T17:17:17;2.42;;;0.60;;
19113;SDS011;9689;51.052;13.772;2023-07-28T17:22:18;2.63;;;1.60;;
19113;SDS011;9689;51.052;13.772;2023-07-28T17:27:20;4.07;;;0.85;;
19113;SDS011;9689;51.052;13.772;2023-07-28T17:32:20;1.50;;;0.70;;
19113;SDS011;9689;51.052;13.772;2023-07-28T17:37:21;1.05;;;0.73;;
19113;SDS011;9689;51.052;13.772;2023-07-28T17:42:23;0.70;;;0.60;;
19113;SDS011;9689;51.052;13.772;2023-07-28T17:47:25;3.95;;;0.70;;
19113;SDS011;9689;51.052;13.772;2023-07-28T17:52:26;0.75;;;0.50;;
19113;SDS011;9689;51.052;13.772;2023-07-28T17:57:28;2.35;;;0.70;;
19113;SDS011;9689;51.052;13.772;2023-07-28T18:02:29;0.68;;;0.60;;
19113;SDS011;9689;51.052;13.772;2023-07-28T18:07:30;2.10;;;1.67;;
19113;SDS011;9689;51.052;13.772;2023-07-28T18:12:32;0.70;;;0.70;;
19113;SDS011;9689;51.052;13.772;2023-07-28T18:17:33;2.72;;;0.77;;
19113;SDS011;9689;51.052;13.772;2023-07-28T18:22:34;2.78;;;0.77;;
19113;SDS011;9689;51.052;13.772;2023-07-28T18:27:36;1.67;;;0.80;;
19113;SDS011;9689;51.052;13.772;2023-07-28T18:32:37;0.60;;;0.60;;
19113;SDS011;9689;51.052;13.772;2023-07-28T18:37:38;1.30;;;1.00;;
19113;SDS011;9689;51.052;13.772;2023-07-28T18:42:40;1.58;;;1.05;;
19113;SDS011;9689;51.052;13.772;2023-07-28T18:47:41;0.75;;;0.70;;
19113;SDS011;9689;51.052;13.772;2023-07-28T18:52:42;1.77;;;0.88;;
19113;SDS011;9689;51.052;13.772;2023-07-28T18:57:44;2.03;;;0.80;;
19113;SDS011;9689;51.052;13.772;2023-07-28T19:02:45;2.83;;;0.80;;
19113;SDS011;9689;51.052;13.772;2023-07-28T19:07:54;2.28;;;1.20;;
19113;SDS011;9689;51.052;13.772;2023-07-28T19:12:57;3.60;;;0.68;;
19113;SDS011;9689;51.052;13.772;2023-07-28T19:17:58;1.15;;;0.95;;
19113;SDS011;9689;51.052;13.772;2023-07-28T19:22:59;7.70;;;4.22;;
19113;SDS011;9689;51.052;13.772;2023-07-28T19:28:01;2.75;;;1.85;;
19113;SDS011;9689;51.052;13.772;2023-07-28T19:33:02;2.33;;;1.20;;
19113;SDS011;9689;51.052;13.772;2023-07-28T19:38:03;1.83;;;1.23;;
19113;SDS011;9689;51.052;13.772;2023-07-28T19:43:05;2.53;;;1.30;;
19113;SDS011;9689;51.052;13.772;2023-07-28T19:48:06;5.50;;;1.52;;
19113;SDS011;9689;51.052;13.772;2023-07-28T19:53:07;3.45;;;1.95;;
19113;SDS011;9689;51.052;13.772;2023-07-28T19:58:10;4.47;;;1.65;;
19113;SDS011;9689;51.052;13.772;2023-07-28T20:03:11;4.70;;;1.40;;
19113;SDS011;9689;51.052;13.772;2023-07-28T20:08:12;2.55;;;1.45;;
19113;SDS011;9689;51.052;13.772;2023-07-28T20:13:14;2.05;;;1.52;;
19113;SDS011;9689;51.052;13.772;2023-07-28T20:18:15;3.10;;;1.73;;
19113;SDS011;9689;51.052;13.772;2023-07-28T20:23:18;3.15;;;1.85;;
19113;SDS011;9689;51.052;13.772;2023-07-28T20:28:21;2.83;;;2.03;;
19113;SDS011;9689;51.052;13.772;2023-07-28T20:33:21;3.85;;;1.70;;
19113;SDS011;9689;51.052;13.772;2023-07-28T20:38:22;2.38;;;1.50;;
19113;SDS011;9689;51.052;13.772;2023-07-28T20:43:24;3.38;;;1.50;;
19113;SDS011;9689;51.052;13.772;2023-07-28T20:48:25;4.25;;;1.77;;
19113;SDS011;9689;51.052;13.772;2023-07-28T20:53:26;3.72;;;1.77;;
19113;SDS011;9689;51.052;13.772;2023-07-28T20:58:32;2.60;;;1.98;;
19113;SDS011;9689;51.052;13.772;2023-07-28T21:03:32;2.88;;;1.95;;
19113;SDS011;9689;51.052;13.772;2023-07-28T21:08:33;3.80;;;2.35;;
19113;SDS011;9689;51.052;13.772;2023-07-28T21:13:35;4.78;;;2.20;;
19113;SDS011;9689;51.052;13.772;2023-07-28T21:18:36;5.35;;;2.65;;
19113;SDS011;9689;51.052;13.772;2023-07-28T21:23:37;8.68;;;4.32;;
19113;SDS011;9689;51.052;13.772;2023-07-28T21:28:39;10.45;;;4.40;;
19113;SDS011;9689;51.052;13.772;2023-07-28T21:33:40;4.55;;;2.63;;
19113;SDS011;9689;51.052;13.772;2023-07-28T21:38:41;6.57;;;3.28;;
19113;SDS011;9689;51.052;13.772;2023-07-28T21:43:43;3.75;;;2.85;;
19113;SDS011;9689;51.052;13.772;2023-07-28T21:48:44;3.45;;;2.33;;
19113;SDS011;9689;51.052;13.772;2023-07-28T21:53:45;4.45;;;2.35;;
19113;SDS011;9689;51.052;13.772;2023-07-28T21:58:47;4.10;;;2.63;;
19113;SDS011;9689;51.052;13.772;2023-07-28T22:03:47;4.95;;;2.35;;
19113;SDS011;9689;51.052;13.772;2023-07-28T22:08:49;3.42;;;1.75;;
19113;SDS011;9689;51.052;13.772;2023-07-28T22:13:52;3.45;;;1.67;;
19113;SDS011;9689;51.052;13.772;2023-07-28T22:18:52;2.45;;;1.65;;
19113;SDS011;9689;51.052;13.772;2023-07-28T22:23:53;3.92;;;1.55;;
19113;SDS011;9689;51.052;13.772;2023-07-28T22:28:55;2.13;;;1.63;;
19113;SDS011;9689;51.052;13.772;2023-07-28T22:33:57;1.88;;;1.45;;
19113;SDS011;9689;51.052;13.772;2023-07-28T22:38:57;4.97;;;2.35;;
19113;SDS011;9689;51.052;13.772;2023-07-28T22:43:59;4.00;;;1.40;;
19113;SDS011;9689;51.052;13.772;2023-07-28T22:49:01;4.25;;;1.52;;
19113;SDS011;9689;51.052;13.772;2023-07-28T22:54:02;2.65;;;1.40;;
19113;SDS011;9689;51.052;13.772;2023-07-28T22:59:04;2.90;;;1.55;;
19113;SDS011;9689;51.052;13.772;2023-07-28T23:04:06;2.40;;;1.50;;
19113;SDS011;9689;51.052;13.772;2023-07-28T23:09:07;2.88;;;2.00;;
19113;SDS011;9689;51.052;13.772;2023-07-28T23:14:09;3.13;;;2.00;;
19113;SDS011;9689;51.052;13.772;2023-07-28T23:19:11;4.10;;;2.10;;
19113;SDS011;9689;51.052;13.772;2023-07-28T23:24:12;2.92;;;1.67;;
19113;SDS011;9689;51.052;13.772;2023-07-28T23:29:14;2.88;;;1.92;;
19113;SDS011;9689;51.052;13.772;2023-07-28T23:34:15;4.30;;;2.05;;
19113;SDS011;9689;51.052;13.772;2023-07-28T23:39:15;2.45;;;1.88;;
19113;SDS011;9689;51.052;13.772;2023-07-28T23:44:17;9.15;;;1.88;;
19113;SDS011;9689;51.052;13.772;2023-07-28T23:49:18;2.67;;;1.63;;
19113;SDS011;9689;51.052;13.772;2023-07-28T23:54:19;3.63;;;1.95;;
19113;SDS011;9689;51.052;13.772;2023-07-28T23:59:21;3.67;;;2.50;;
